sensor_id;sensor_type;location;lat;lon;timestamp;P1;durP1;ratioP1;P2;durP2;ratioP2
74344;SDS011;62776;50.518;6.732;2023-02-20T00:00:17;4.95;;;4.38;;
74344;SDS011;62776;50.518;6.732;2023-02-20T00:03:31;4.82;;;4.38;;
74344;SDS011;62776;50.518;6.732;2023-02-20T00:06:31;4.63;;;4.22;;
74344;SDS011;62776;50.518;6.732;2023-02-20T00:09:18;4.70;;;4.30;;
74344;SDS011;62776;50.518;6.732;2023-02-20T00:12:19;5.32;;;4.88;;
74344;SDS011;62776;50.518;6.732;2023-02-20T00:15:06;5.28;;;4.88;;
74344;SDS011;62776;50.518;6.732;2023-02-20T00:17:54;4.63;;;4.22;;
74344;SDS011;62776;50.518;6.732;2023-02-20T00:20:41;5.15;;;4.65;;
74344;SDS011;62776;50.518;6.732;2023-02-20T00:26:55;6.28;;;5.15;;
74344;SDS011;62776;50.518;6.732;2023-02-20T00:29:53;5.32;;;4.82;;
74344;SDS011;62776;50.518;6.732;2023-02-20T00:32:51;5.50;;;4.90;;
74344;SDS011;62776;50.518;6.732;2023-02-20T00:35:52;5.83;;;5.33;;
74344;SDS011;62776;50.518;6.732;2023-02-20T00:38:50;5.95;;;5.45;;
74344;SDS011;62776;50.518;6.732;2023-02-20T00:41:46;6.03;;;5.53;;
74344;SDS011;62776;50.518;6.732;2023-02-20T00:44:36;6.82;;;6.13;;
74344;SDS011;62776;50.518;6.732;2023-02-20T00:47:27;7.10;;;5.80;;
74344;SDS011;62776;50.518;6.732;2023-02-20T00:50:21;7.30;;;6.70;;
74344;SDS011;62776;50.518;6.732;2023-02-20T00:53:13;13.55;;;6.88;;
74344;SDS011;62776;50.518;6.732;2023-02-20T00:56:02;7.32;;;6.82;;
74344;SDS011;62776;50.518;6.732;2023-02-20T00:58:50;7.95;;;7.25;;
74344;SDS011;62776;50.518;6.732;2023-02-20T01:01:58;8.52;;;7.60;;
74344;SDS011;62776;50.518;6.732;2023-02-20T01:04:51;7.93;;;6.88;;
74344;SDS011;62776;50.518;6.732;2023-02-20T01:07:46;8.20;;;7.40;;
74344;SDS011;62776;50.518;6.732;2023-02-20T01:10:35;8.48;;;7.25;;
74344;SDS011;62776;50.518;6.732;2023-02-20T01:13:24;8.75;;;7.95;;
74344;SDS011;62776;50.518;6.732;2023-02-20T01:16:17;9.70;;;8.73;;
74344;SDS011;62776;50.518;6.732;2023-02-20T01:19:14;8.82;;;7.88;;
74344;SDS011;62776;50.518;6.732;2023-02-20T01:22:01;9.75;;;7.97;;
74344;SDS011;62776;50.518;6.732;2023-02-20T01:24:56;9.40;;;8.43;;
74344;SDS011;62776;50.518;6.732;2023-02-20T01:30:40;11.35;;;10.13;;
74344;SDS011;62776;50.518;6.732;2023-02-20T01:33:30;10.65;;;8.98;;
74344;SDS011;62776;50.518;6.732;2023-02-20T01:36:19;11.77;;;9.40;;
74344;SDS011;62776;50.518;6.732;2023-02-20T01:39:19;10.63;;;9.52;;
74344;SDS011;62776;50.518;6.732;2023-02-20T01:42:21;12.57;;;10.90;;
74344;SDS011;62776;50.518;6.732;2023-02-20T01:48:23;11.88;;;9.65;;
74344;SDS011;62776;50.518;6.732;2023-02-20T01:51:10;12.00;;;10.75;;
74344;SDS011;62776;50.518;6.732;2023-02-20T01:53:57;11.93;;;10.52;;
74344;SDS011;62776;50.518;6.732;2023-02-20T01:56:58;11.55;;;10.30;;
74344;SDS011;62776;50.518;6.732;2023-02-20T01:59:56;15.57;;;10.30;;
74344;SDS011;62776;50.518;6.732;2023-02-20T02:02:59;12.98;;;10.85;;
74344;SDS011;62776;50.518;6.732;2023-02-20T02:05:32;11.50;;;10.20;;
74344;SDS011;62776;50.518;6.732;2023-02-20T02:08:28;12.68;;;10.68;;
74344;SDS011;62776;50.518;6.732;2023-02-20T02:11:16;11.32;;;10.23;;
74344;SDS011;62776;50.518;6.732;2023-02-20T02:14:00;10.73;;;9.65;;
74344;SDS011;62776;50.518;6.732;2023-02-20T02:16:51;11.30;;;10.10;;
74344;SDS011;62776;50.518;6.732;2023-02-20T02:32:55;8.95;;;8.02;;
74344;SDS011;62776;50.518;6.732;2023-02-20T02:36:09;10.30;;;8.55;;
74344;SDS011;62776;50.518;6.732;2023-02-20T02:39:26;10.50;;;8.35;;
74344;SDS011;62776;50.518;6.732;2023-02-20T02:45:55;8.77;;;7.75;;
74344;SDS011;62776;50.518;6.732;2023-02-20T02:48:53;12.07;;;9.00;;
74344;SDS011;62776;50.518;6.732;2023-02-20T02:51:58;12.77;;;9.55;;
74344;SDS011;62776;50.518;6.732;2023-02-20T02:54:54;10.00;;;9.00;;
74344;SDS011;62776;50.518;6.732;2023-02-20T02:57:40;10.38;;;9.27;;
74344;SDS011;62776;50.518;6.732;2023-02-20T03:00:47;9.90;;;8.80;;
74344;SDS011;62776;50.518;6.732;2023-02-20T03:03:44;10.52;;;9.07;;
74344;SDS011;62776;50.518;6.732;2023-02-20T03:06:33;9.80;;;8.90;;
74344;SDS011;62776;50.518;6.732;2023-02-20T03:09:40;10.13;;;9.15;;
74344;SDS011;62776;50.518;6.732;2023-02-20T03:12:37;9.13;;;8.07;;
74344;SDS011;62776;50.518;6.732;2023-02-20T03:15:30;9.20;;;8.30;;
74344;SDS011;62776;50.518;6.732;2023-02-20T03:18:34;8.50;;;7.68;;
74344;SDS011;62776;50.518;6.732;2023-02-20T03:21:31;8.07;;;7.28;;
74344;SDS011;62776;50.518;6.732;2023-02-20T03:24:20;9.93;;;7.47;;
74344;SDS011;62776;50.518;6.732;2023-02-20T03:27:11;6.55;;;5.93;;
74344;SDS011;62776;50.518;6.732;2023-02-20T03:29:58;8.88;;;6.38;;
74344;SDS011;62776;50.518;6.732;2023-02-20T03:32:44;7.10;;;6.50;;
74344;SDS011;62776;50.518;6.732;2023-02-20T03:35:54;6.70;;;6.10;;
74344;SDS011;62776;50.518;6.732;2023-02-20T03:39:07;7.10;;;6.38;;
74344;SDS011;62776;50.518;6.732;2023-02-20T03:42:17;7.65;;;6.55;;
74344;SDS011;62776;50.518;6.732;2023-02-20T03:45:26;6.20;;;5.60;;
74344;SDS011;62776;50.518;6.732;2023-02-20T03:48:18;6.07;;;5.45;;
74344;SDS011;62776;50.518;6.732;2023-02-20T03:51:09;6.53;;;5.82;;
74344;SDS011;62776;50.518;6.732;2023-02-20T03:53:57;7.97;;;6.53;;
74344;SDS011;62776;50.518;6.732;2023-02-20T03:56:46;5.32;;;4.80;;
74344;SDS011;62776;50.518;6.732;2023-02-20T04:02:41;4.72;;;4.28;;
74344;SDS011;62776;50.518;6.732;2023-02-20T04:05:31;5.22;;;4.65;;
74344;SDS011;62776;50.518;6.732;2023-02-20T04:08:32;4.40;;;3.80;;
74344;SDS011;62776;50.518;6.732;2023-02-20T04:11:38;4.40;;;3.97;;
74344;SDS011;62776;50.518;6.732;2023-02-20T04:14:35;4.65;;;4.20;;
74344;SDS011;62776;50.518;6.732;2023-02-20T04:17:31;5.13;;;3.58;;
74344;SDS011;62776;50.518;6.732;2023-02-20T04:20:24;3.75;;;3.45;;
74344;SDS011;62776;50.518;6.732;2023-02-20T04:23:13;3.95;;;3.30;;
74344;SDS011;62776;50.518;6.732;2023-02-20T04:26:11;3.70;;;3.13;;
74344;SDS011;62776;50.518;6.732;2023-02-20T04:29:03;4.07;;;3.40;;
74344;SDS011;62776;50.518;6.732;2023-02-20T04:31:50;3.67;;;3.38;;
74344;SDS011;62776;50.518;6.732;2023-02-20T04:34:42;4.13;;;3.17;;
74344;SDS011;62776;50.518;6.732;2023-02-20T04:37:28;3.72;;;3.25;;
74344;SDS011;62776;50.518;6.732;2023-02-20T04:40:18;4.13;;;3.42;;
74344;SDS011;62776;50.518;6.732;2023-02-20T04:43:06;2.78;;;2.55;;
74344;SDS011;62776;50.518;6.732;2023-02-20T04:45:52;3.72;;;3.30;;
74344;SDS011;62776;50.518;6.732;2023-02-20T04:48:41;4.65;;;2.90;;
74344;SDS011;62776;50.518;6.732;2023-02-20T04:51:28;4.00;;;3.00;;
74344;SDS011;62776;50.518;6.732;2023-02-20T04:54:17;3.13;;;2.63;;
74344;SDS011;62776;50.518;6.732;2023-02-20T04:57:04;4.20;;;2.88;;
74344;SDS011;62776;50.518;6.732;2023-02-20T04:59:51;4.00;;;3.20;;
74344;SDS011;62776;50.518;6.732;2023-02-20T05:02:38;3.95;;;2.70;;
74344;SDS011;62776;50.518;6.732;2023-02-20T05:05:25;2.65;;;2.42;;
74344;SDS011;62776;50.518;6.732;2023-02-20T05:08:13;6.28;;;3.17;;
74344;SDS011;62776;50.518;6.732;2023-02-20T05:11:00;4.00;;;3.03;;
74344;SDS011;62776;50.518;6.732;2023-02-20T05:13:48;7.97;;;3.70;;
74344;SDS011;62776;50.518;6.732;2023-02-20T05:16:37;4.30;;;3.08;;
74344;SDS011;62776;50.518;6.732;2023-02-20T05:19:24;3.20;;;2.90;;
74344;SDS011;62776;50.518;6.732;2023-02-20T05:22:15;3.28;;;2.95;;
74344;SDS011;62776;50.518;6.732;2023-02-20T05:25:04;5.88;;;3.40;;
74344;SDS011;62776;50.518;6.732;2023-02-20T05:27:51;4.80;;;3.20;;
74344;SDS011;62776;50.518;6.732;2023-02-20T05:30:41;5.90;;;3.38;;
74344;SDS011;62776;50.518;6.732;2023-02-20T05:33:28;3.60;;;3.20;;
74344;SDS011;62776;50.518;6.732;2023-02-20T05:36:15;3.90;;;3.22;;
74344;SDS011;62776;50.518;6.732;2023-02-20T05:39:02;4.60;;;3.22;;
74344;SDS011;62776;50.518;6.732;2023-02-20T05:41:49;5.10;;;4.60;;
74344;SDS011;62776;50.518;6.732;2023-02-20T05:44:36;4.22;;;2.97;;
74344;SDS011;62776;50.518;6.732;2023-02-20T05:47:23;2.60;;;2.40;;
74344;SDS011;62776;50.518;6.732;2023-02-20T05:50:15;3.10;;;2.58;;
74344;SDS011;62776;50.518;6.732;2023-02-20T05:53:02;2.88;;;2.17;;
74344;SDS011;62776;50.518;6.732;2023-02-20T05:55:48;3.03;;;2.00;;
74344;SDS011;62776;50.518;6.732;2023-02-20T05:58:34;3.83;;;2.60;;
74344;SDS011;62776;50.518;6.732;2023-02-20T06:01:23;4.97;;;2.72;;
74344;SDS011;62776;50.518;6.732;2023-02-20T06:04:17;2.22;;;1.88;;
74344;SDS011;62776;50.518;6.732;2023-02-20T06:07:03;3.45;;;2.10;;
74344;SDS011;62776;50.518;6.732;2023-02-20T06:09:55;3.42;;;2.30;;
74344;SDS011;62776;50.518;6.732;2023-02-20T06:12:41;2.58;;;2.30;;
74344;SDS011;62776;50.518;6.732;2023-02-20T06:15:28;4.35;;;2.80;;
74344;SDS011;62776;50.518;6.732;2023-02-20T06:18:14;3.25;;;2.58;;
74344;SDS011;62776;50.518;6.732;2023-02-20T06:21:08;3.95;;;3.00;;
74344;SDS011;62776;50.518;6.732;2023-02-20T06:23:55;4.20;;;2.90;;
74344;SDS011;62776;50.518;6.732;2023-02-20T06:26:42;4.80;;;3.42;;
74344;SDS011;62776;50.518;6.732;2023-02-20T06:29:29;3.60;;;2.78;;
74344;SDS011;62776;50.518;6.732;2023-02-20T06:32:16;4.13;;;3.28;;
74344;SDS011;62776;50.518;6.732;2023-02-20T06:35:03;3.97;;;3.17;;
74344;SDS011;62776;50.518;6.732;2023-02-20T06:37:50;4.05;;;3.30;;
74344;SDS011;62776;50.518;6.732;2023-02-20T06:40:38;3.35;;;2.72;;
74344;SDS011;62776;50.518;6.732;2023-02-20T06:43:24;4.28;;;3.08;;
74344;SDS011;62776;50.518;6.732;2023-02-20T06:46:13;2.70;;;2.45;;
74344;SDS011;62776;50.518;6.732;2023-02-20T06:49:00;3.03;;;2.72;;
74344;SDS011;62776;50.518;6.732;2023-02-20T06:51:51;3.22;;;2.67;;
74344;SDS011;62776;50.518;6.732;2023-02-20T06:54:50;3.72;;;2.45;;
74344;SDS011;62776;50.518;6.732;2023-02-20T06:57:39;3.35;;;3.05;;
74344;SDS011;62776;50.518;6.732;2023-02-20T07:00:27;3.45;;;3.15;;
74344;SDS011;62776;50.518;6.732;2023-02-20T07:03:13;3.40;;;3.10;;
74344;SDS011;62776;50.518;6.732;2023-02-20T07:06:02;3.90;;;3.03;;
74344;SDS011;62776;50.518;6.732;2023-02-20T07:08:48;2.88;;;2.63;;
74344;SDS011;62776;50.518;6.732;2023-02-20T07:11:35;4.18;;;3.40;;
74344;SDS011;62776;50.518;6.732;2023-02-20T07:14:21;3.85;;;3.50;;
74344;SDS011;62776;50.518;6.732;2023-02-20T07:17:08;3.33;;;2.83;;
74344;SDS011;62776;50.518;6.732;2023-02-20T07:19:55;3.15;;;2.63;;
74344;SDS011;62776;50.518;6.732;2023-02-20T07:22:52;3.13;;;2.83;;
74344;SDS011;62776;50.518;6.732;2023-02-20T07:25:39;4.32;;;2.42;;
74344;SDS011;62776;50.518;6.732;2023-02-20T07:28:26;3.45;;;2.53;;
74344;SDS011;62776;50.518;6.732;2023-02-20T07:31:12;4.18;;;3.67;;
74344;SDS011;62776;50.518;6.732;2023-02-20T07:33:59;2.63;;;2.42;;
74344;SDS011;62776;50.518;6.732;2023-02-20T07:36:45;2.90;;;2.38;;
74344;SDS011;62776;50.518;6.732;2023-02-20T07:39:34;3.03;;;2.63;;
74344;SDS011;62776;50.518;6.732;2023-02-20T07:42:21;3.53;;;2.90;;
74344;SDS011;62776;50.518;6.732;2023-02-20T07:45:08;3.47;;;3.15;;
74344;SDS011;62776;50.518;6.732;2023-02-20T07:47:55;4.28;;;3.30;;
74344;SDS011;62776;50.518;6.732;2023-02-20T07:50:41;3.70;;;3.30;;
74344;SDS011;62776;50.518;6.732;2023-02-20T07:53:28;3.60;;;3.30;;
74344;SDS011;62776;50.518;6.732;2023-02-20T07:56:16;4.68;;;3.60;;
74344;SDS011;62776;50.518;6.732;2023-02-20T07:59:05;3.58;;;3.17;;
74344;SDS011;62776;50.518;6.732;2023-02-20T08:01:52;3.47;;;3.17;;
74344;SDS011;62776;50.518;6.732;2023-02-20T08:04:42;3.67;;;3.10;;
74344;SDS011;62776;50.518;6.732;2023-02-20T08:07:33;4.28;;;3.45;;
74344;SDS011;62776;50.518;6.732;2023-02-20T08:10:22;3.80;;;3.47;;
74344;SDS011;62776;50.518;6.732;2023-02-20T08:13:12;3.60;;;3.30;;
74344;SDS011;62776;50.518;6.732;2023-02-20T08:15:58;4.32;;;3.83;;
74344;SDS011;62776;50.518;6.732;2023-02-20T08:18:50;2.83;;;2.50;;
74344;SDS011;62776;50.518;6.732;2023-02-20T08:21:38;3.25;;;2.75;;
74344;SDS011;62776;50.518;6.732;2023-02-20T08:24:25;2.78;;;2.58;;
74344;SDS011;62776;50.518;6.732;2023-02-20T08:27:12;2.85;;;2.50;;
74344;SDS011;62776;50.518;6.732;2023-02-20T08:30:00;3.55;;;3.20;;
74344;SDS011;62776;50.518;6.732;2023-02-20T08:32:52;2.63;;;2.33;;
74344;SDS011;62776;50.518;6.732;2023-02-20T08:35:40;3.25;;;2.95;;
74344;SDS011;62776;50.518;6.732;2023-02-20T08:38:28;4.03;;;3.25;;
74344;SDS011;62776;50.518;6.732;2023-02-20T08:41:17;2.90;;;2.55;;
74344;SDS011;62776;50.518;6.732;2023-02-20T08:44:11;3.55;;;2.50;;
74344;SDS011;62776;50.518;6.732;2023-02-20T08:46:59;2.85;;;2.45;;
74344;SDS011;62776;50.518;6.732;2023-02-20T08:49:46;2.58;;;2.13;;
74344;SDS011;62776;50.518;6.732;2023-02-20T08:52:33;2.58;;;2.38;;
74344;SDS011;62776;50.518;6.732;2023-02-20T08:55:20;2.47;;;2.28;;
74344;SDS011;62776;50.518;6.732;2023-02-20T08:58:10;2.97;;;2.67;;
74344;SDS011;62776;50.518;6.732;2023-02-20T09:00:58;3.25;;;2.53;;
74344;SDS011;62776;50.518;6.732;2023-02-20T09:03:45;2.22;;;2.10;;
74344;SDS011;62776;50.518;6.732;2023-02-20T09:06:33;2.63;;;1.95;;
74344;SDS011;62776;50.518;6.732;2023-02-20T09:09:19;3.20;;;2.17;;
74344;SDS011;62776;50.518;6.732;2023-02-20T09:12:07;2.20;;;1.95;;
74344;SDS011;62776;50.518;6.732;2023-02-20T09:14:57;2.55;;;2.13;;
74344;SDS011;62776;50.518;6.732;2023-02-20T09:17:51;3.25;;;2.28;;
74344;SDS011;62776;50.518;6.732;2023-02-20T09:20:39;2.20;;;2.00;;
74344;SDS011;62776;50.518;6.732;2023-02-20T09:23:28;2.75;;;2.33;;
74344;SDS011;62776;50.518;6.732;2023-02-20T09:26:14;2.60;;;2.40;;
74344;SDS011;62776;50.518;6.732;2023-02-20T09:29:02;2.78;;;2.50;;
74344;SDS011;62776;50.518;6.732;2023-02-20T09:31:52;3.40;;;2.20;;
74344;SDS011;62776;50.518;6.732;2023-02-20T09:34:39;2.67;;;2.38;;
74344;SDS011;62776;50.518;6.732;2023-02-20T09:37:26;2.75;;;2.55;;
74344;SDS011;62776;50.518;6.732;2023-02-20T09:40:13;2.95;;;2.30;;
74344;SDS011;62776;50.518;6.732;2023-02-20T09:46:12;3.20;;;2.90;;
74344;SDS011;62776;50.518;6.732;2023-02-20T09:49:09;2.55;;;2.22;;
74344;SDS011;62776;50.518;6.732;2023-02-20T09:52:09;2.70;;;2.50;;
74344;SDS011;62776;50.518;6.732;2023-02-20T09:55:00;3.03;;;2.42;;
74344;SDS011;62776;50.518;6.732;2023-02-20T09:57:49;2.67;;;2.47;;
74344;SDS011;62776;50.518;6.732;2023-02-20T10:00:39;3.03;;;2.72;;
74344;SDS011;62776;50.518;6.732;2023-02-20T10:03:36;3.45;;;3.00;;
74344;SDS011;62776;50.518;6.732;2023-02-20T10:06:43;3.15;;;2.78;;
74344;SDS011;62776;50.518;6.732;2023-02-20T10:09:39;3.00;;;2.80;;
74344;SDS011;62776;50.518;6.732;2023-02-20T10:25:17;2.97;;;2.72;;
74344;SDS011;62776;50.518;6.732;2023-02-20T10:28:31;5.65;;;2.72;;
74344;SDS011;62776;50.518;6.732;2023-02-20T10:34:07;3.45;;;3.15;;
74344;SDS011;62776;50.518;6.732;2023-02-20T10:37:02;4.25;;;3.25;;
74344;SDS011;62776;50.518;6.732;2023-02-20T10:40:16;3.25;;;2.95;;
74344;SDS011;62776;50.518;6.732;2023-02-20T10:46:11;3.30;;;2.90;;
74344;SDS011;62776;50.518;6.732;2023-02-20T10:49:17;3.85;;;3.08;;
74344;SDS011;62776;50.518;6.732;2023-02-20T10:52:36;3.37;;;3.03;;
74344;SDS011;62776;50.518;6.732;2023-02-20T11:01:41;3.58;;;2.80;;
74344;SDS011;62776;50.518;6.732;2023-02-20T11:04:36;3.13;;;2.92;;
74344;SDS011;62776;50.518;6.732;2023-02-20T11:07:26;4.38;;;3.28;;
74344;SDS011;62776;50.518;6.732;2023-02-20T11:10:12;7.38;;;4.43;;
74344;SDS011;62776;50.518;6.732;2023-02-20T11:12:59;4.22;;;3.83;;
74344;SDS011;62776;50.518;6.732;2023-02-20T11:15:49;3.83;;;3.00;;
74344;SDS011;62776;50.518;6.732;2023-02-20T11:18:38;3.60;;;3.30;;
74344;SDS011;62776;50.518;6.732;2023-02-20T11:21:32;4.53;;;3.47;;
74344;SDS011;62776;50.518;6.732;2023-02-20T11:24:42;3.90;;;3.60;;
74344;SDS011;62776;50.518;6.732;2023-02-20T11:27:30;4.00;;;3.53;;
74344;SDS011;62776;50.518;6.732;2023-02-20T11:30:29;4.10;;;3.63;;
74344;SDS011;62776;50.518;6.732;2023-02-20T11:33:29;3.97;;;3.42;;
74344;SDS011;62776;50.518;6.732;2023-02-20T11:36:25;4.63;;;3.78;;
74344;SDS011;62776;50.518;6.732;2023-02-20T11:39:27;5.30;;;4.30;;
74344;SDS011;62776;50.518;6.732;2023-02-20T11:42:18;4.47;;;4.03;;
74344;SDS011;62776;50.518;6.732;2023-02-20T11:48:27;3.40;;;2.90;;
74344;SDS011;62776;50.518;6.732;2023-02-20T11:51:23;3.47;;;3.05;;
74344;SDS011;62776;50.518;6.732;2023-02-20T11:54:22;5.85;;;4.57;;
74344;SDS011;62776;50.518;6.732;2023-02-20T11:57:23;5.65;;;4.63;;
74344;SDS011;62776;50.518;6.732;2023-02-20T12:00:25;4.20;;;3.78;;
74344;SDS011;62776;50.518;6.732;2023-02-20T12:03:20;3.58;;;3.28;;
74344;SDS011;62776;50.518;6.732;2023-02-20T12:06:37;3.42;;;3.08;;
74344;SDS011;62776;50.518;6.732;2023-02-20T12:09:27;3.45;;;3.15;;
74344;SDS011;62776;50.518;6.732;2023-02-20T12:12:14;5.00;;;4.50;;
74344;SDS011;62776;50.518;6.732;2023-02-20T12:15:01;5.85;;;4.10;;
74344;SDS011;62776;50.518;6.732;2023-02-20T12:17:52;3.95;;;3.38;;
74344;SDS011;62776;50.518;6.732;2023-02-20T12:31:08;3.05;;;2.47;;
74344;SDS011;62776;50.518;6.732;2023-02-20T12:43:25;3.83;;;3.33;;
74344;SDS011;62776;50.518;6.732;2023-02-20T12:46:30;5.15;;;2.90;;
74344;SDS011;62776;50.518;6.732;2023-02-20T12:55:48;2.60;;;2.40;;
74344;SDS011;62776;50.518;6.732;2023-02-20T12:58:58;3.10;;;2.80;;
74344;SDS011;62776;50.518;6.732;2023-02-20T13:02:19;2.58;;;2.33;;
74344;SDS011;62776;50.518;6.732;2023-02-20T13:05:15;3.00;;;2.65;;
74344;SDS011;62776;50.518;6.732;2023-02-20T13:11:13;2.28;;;2.05;;
74344;SDS011;62776;50.518;6.732;2023-02-20T13:19:59;2.53;;;2.10;;
74344;SDS011;62776;50.518;6.732;2023-02-20T13:23:05;2.13;;;1.92;;
74344;SDS011;62776;50.518;6.732;2023-02-20T13:26:01;2.35;;;2.05;;
74344;SDS011;62776;50.518;6.732;2023-02-20T13:29:16;1.90;;;1.80;;
74344;SDS011;62776;50.518;6.732;2023-02-20T13:38:25;2.35;;;2.05;;
74344;SDS011;62776;50.518;6.732;2023-02-20T13:41:21;3.25;;;1.40;;
74344;SDS011;62776;50.518;6.732;2023-02-20T13:44:42;1.65;;;1.52;;
74344;SDS011;62776;50.518;6.732;2023-02-20T13:47:27;2.00;;;1.90;;
74344;SDS011;62776;50.518;6.732;2023-02-20T13:50:29;1.42;;;1.25;;
74344;SDS011;62776;50.518;6.732;2023-02-20T13:53:23;2.00;;;1.80;;
74344;SDS011;62776;50.518;6.732;2023-02-20T13:56:19;1.70;;;1.30;;
74344;SDS011;62776;50.518;6.732;2023-02-20T13:59:13;1.70;;;1.35;;
74344;SDS011;62776;50.518;6.732;2023-02-20T14:02:12;2.08;;;1.48;;
74344;SDS011;62776;50.518;6.732;2023-02-20T14:05:06;1.67;;;1.58;;
74344;SDS011;62776;50.518;6.732;2023-02-20T14:08:05;2.33;;;1.52;;
74344;SDS011;62776;50.518;6.732;2023-02-20T14:11:07;1.70;;;1.48;;
74344;SDS011;62776;50.518;6.732;2023-02-20T14:14:21;2.95;;;1.40;;
74344;SDS011;62776;50.518;6.732;2023-02-20T14:17:20;2.80;;;1.77;;
74344;SDS011;62776;50.518;6.732;2023-02-20T14:20:15;1.55;;;1.45;;
74344;SDS011;62776;50.518;6.732;2023-02-20T14:23:17;2.88;;;1.65;;
74344;SDS011;62776;50.518;6.732;2023-02-20T14:29:04;2.13;;;1.67;;
74344;SDS011;62776;50.518;6.732;2023-02-20T14:32:10;2.13;;;1.80;;
74344;SDS011;62776;50.518;6.732;2023-02-20T14:35:05;1.73;;;1.52;;
74344;SDS011;62776;50.518;6.732;2023-02-20T14:38:06;1.95;;;1.30;;
74344;SDS011;62776;50.518;6.732;2023-02-20T14:41:12;2.50;;;1.33;;
74344;SDS011;62776;50.518;6.732;2023-02-20T14:44:05;3.83;;;1.65;;
74344;SDS011;62776;50.518;6.732;2023-02-20T14:50:22;1.60;;;1.35;;
74344;SDS011;62776;50.518;6.732;2023-02-20T14:53:19;2.58;;;1.92;;
74344;SDS011;62776;50.518;6.732;2023-02-20T14:56:09;1.52;;;1.40;;
74344;SDS011;62776;50.518;6.732;2023-02-20T14:58:56;1.45;;;1.35;;
74344;SDS011;62776;50.518;6.732;2023-02-20T15:01:44;1.40;;;1.10;;
74344;SDS011;62776;50.518;6.732;2023-02-20T15:04:30;2.92;;;1.50;;
74344;SDS011;62776;50.518;6.732;2023-02-20T15:07:19;1.50;;;1.35;;
74344;SDS011;62776;50.518;6.732;2023-02-20T15:13:39;1.67;;;1.10;;
74344;SDS011;62776;50.518;6.732;2023-02-20T15:16:33;3.38;;;1.48;;
74344;SDS011;62776;50.518;6.732;2023-02-20T15:19:32;1.55;;;1.23;;
74344;SDS011;62776;50.518;6.732;2023-02-20T15:22:32;2.80;;;1.13;;
74344;SDS011;62776;50.518;6.732;2023-02-20T15:25:35;1.52;;;1.23;;
74344;SDS011;62776;50.518;6.732;2023-02-20T15:28:25;1.98;;;1.30;;
74344;SDS011;62776;50.518;6.732;2023-02-20T15:31:20;1.42;;;1.27;;
74344;SDS011;62776;50.518;6.732;2023-02-20T15:34:11;2.35;;;1.42;;
74344;SDS011;62776;50.518;6.732;2023-02-20T15:37:31;2.05;;;1.80;;
74344;SDS011;62776;50.518;6.732;2023-02-20T15:40:25;1.77;;;1.38;;
74344;SDS011;62776;50.518;6.732;2023-02-20T15:43:19;1.27;;;1.17;;
74344;SDS011;62776;50.518;6.732;2023-02-20T15:46:05;2.05;;;1.45;;
74344;SDS011;62776;50.518;6.732;2023-02-20T15:49:01;1.48;;;1.23;;
74344;SDS011;62776;50.518;6.732;2023-02-20T15:51:48;1.88;;;1.38;;
74344;SDS011;62776;50.518;6.732;2023-02-20T15:54:40;1.45;;;1.15;;
74344;SDS011;62776;50.518;6.732;2023-02-20T15:57:28;1.65;;;1.40;;
74344;SDS011;62776;50.518;6.732;2023-02-20T16:00:18;1.05;;;1.02;;
74344;SDS011;62776;50.518;6.732;2023-02-20T16:03:06;3.00;;;1.33;;
74344;SDS011;62776;50.518;6.732;2023-02-20T16:05:54;1.40;;;1.30;;
74344;SDS011;62776;50.518;6.732;2023-02-20T16:08:41;2.88;;;1.50;;
74344;SDS011;62776;50.518;6.732;2023-02-20T16:11:39;2.03;;;1.20;;
74344;SDS011;62776;50.518;6.732;2023-02-20T16:14:37;1.52;;;1.23;;
74344;SDS011;62776;50.518;6.732;2023-02-20T16:17:26;1.77;;;1.48;;
74344;SDS011;62776;50.518;6.732;2023-02-20T16:20:16;1.98;;;1.35;;
74344;SDS011;62776;50.518;6.732;2023-02-20T16:23:13;2.17;;;1.60;;
74344;SDS011;62776;50.518;6.732;2023-02-20T16:26:00;1.60;;;1.50;;
74344;SDS011;62776;50.518;6.732;2023-02-20T16:28:56;3.13;;;1.52;;
74344;SDS011;62776;50.518;6.732;2023-02-20T16:34:40;1.98;;;1.60;;
74344;SDS011;62776;50.518;6.732;2023-02-20T16:37:27;2.15;;;1.40;;
74344;SDS011;62776;50.518;6.732;2023-02-20T16:40:14;1.55;;;1.42;;
74344;SDS011;62776;50.518;6.732;2023-02-20T16:43:00;2.08;;;1.42;;
74344;SDS011;62776;50.518;6.732;2023-02-20T16:45:48;1.40;;;1.20;;
74344;SDS011;62776;50.518;6.732;2023-02-20T16:48:42;1.83;;;1.50;;
74344;SDS011;62776;50.518;6.732;2023-02-20T16:51:35;1.65;;;1.55;;
74344;SDS011;62776;50.518;6.732;2023-02-20T16:54:29;1.50;;;1.30;;
74344;SDS011;62776;50.518;6.732;2023-02-20T16:57:20;2.42;;;1.45;;
74344;SDS011;62776;50.518;6.732;2023-02-20T17:00:19;2.22;;;1.50;;
74344;SDS011;62776;50.518;6.732;2023-02-20T17:03:12;2.35;;;1.60;;
74344;SDS011;62776;50.518;6.732;2023-02-20T17:06:06;1.48;;;1.35;;
74344;SDS011;62776;50.518;6.732;2023-02-20T17:08:52;1.92;;;1.35;;
74344;SDS011;62776;50.518;6.732;2023-02-20T17:11:41;2.30;;;1.73;;
74344;SDS011;62776;50.518;6.732;2023-02-20T17:14:31;1.83;;;1.60;;
74344;SDS011;62776;50.518;6.732;2023-02-20T17:17:19;3.22;;;2.33;;
74344;SDS011;62776;50.518;6.732;2023-02-20T17:20:10;3.45;;;2.28;;
74344;SDS011;62776;50.518;6.732;2023-02-20T17:23:05;2.03;;;1.70;;
74344;SDS011;62776;50.518;6.732;2023-02-20T17:25:52;2.20;;;2.00;;
74344;SDS011;62776;50.518;6.732;2023-02-20T17:28:38;3.83;;;2.10;;
74344;SDS011;62776;50.518;6.732;2023-02-20T17:31:38;3.25;;;1.90;;
74344;SDS011;62776;50.518;6.732;2023-02-20T17:34:25;2.70;;;2.05;;
74344;SDS011;62776;50.518;6.732;2023-02-20T17:37:12;2.97;;;2.20;;
74344;SDS011;62776;50.518;6.732;2023-02-20T17:40:01;3.15;;;2.05;;
74344;SDS011;62776;50.518;6.732;2023-02-20T17:42:50;4.15;;;2.17;;
74344;SDS011;62776;50.518;6.732;2023-02-20T17:45:36;2.55;;;1.80;;
74344;SDS011;62776;50.518;6.732;2023-02-20T17:48:23;2.47;;;1.88;;
74344;SDS011;62776;50.518;6.732;2023-02-20T17:51:17;2.70;;;2.20;;
74344;SDS011;62776;50.518;6.732;2023-02-20T17:54:04;3.95;;;2.45;;
74344;SDS011;62776;50.518;6.732;2023-02-20T17:56:51;3.55;;;2.80;;
74344;SDS011;62776;50.518;6.732;2023-02-20T17:59:38;2.90;;;2.47;;
74344;SDS011;62776;50.518;6.732;2023-02-20T18:02:25;2.17;;;1.98;;
74344;SDS011;62776;50.518;6.732;2023-02-20T18:05:13;2.50;;;2.20;;
74344;SDS011;62776;50.518;6.732;2023-02-20T18:07:59;6.28;;;3.35;;
74344;SDS011;62776;50.518;6.732;2023-02-20T18:10:47;5.25;;;3.65;;
74344;SDS011;62776;50.518;6.732;2023-02-20T18:13:34;3.67;;;3.22;;
74344;SDS011;62776;50.518;6.732;2023-02-20T18:16:30;4.45;;;3.70;;
74344;SDS011;62776;50.518;6.732;2023-02-20T18:19:23;4.68;;;4.07;;
74344;SDS011;62776;50.518;6.732;2023-02-20T18:22:09;3.92;;;2.72;;
74344;SDS011;62776;50.518;6.732;2023-02-20T18:24:56;3.95;;;3.35;;
74344;SDS011;62776;50.518;6.732;2023-02-20T18:27:43;8.18;;;7.38;;
74344;SDS011;62776;50.518;6.732;2023-02-20T18:30:29;5.28;;;4.43;;
74344;SDS011;62776;50.518;6.732;2023-02-20T18:33:18;6.90;;;6.20;;
74344;SDS011;62776;50.518;6.732;2023-02-20T18:36:05;5.05;;;4.07;;
74344;SDS011;62776;50.518;6.732;2023-02-20T18:38:52;4.38;;;3.70;;
74344;SDS011;62776;50.518;6.732;2023-02-20T18:41:39;4.05;;;3.58;;
74344;SDS011;62776;50.518;6.732;2023-02-20T18:44:26;3.72;;;3.20;;
74344;SDS011;62776;50.518;6.732;2023-02-20T18:47:12;4.28;;;3.85;;
74344;SDS011;62776;50.518;6.732;2023-02-20T18:50:02;4.70;;;3.42;;
74344;SDS011;62776;50.518;6.732;2023-02-20T18:52:48;5.90;;;3.75;;
74344;SDS011;62776;50.518;6.732;2023-02-20T18:55:36;4.47;;;3.72;;
74344;SDS011;62776;50.518;6.732;2023-02-20T18:58:22;11.90;;;4.20;;
74344;SDS011;62776;50.518;6.732;2023-02-20T19:01:13;6.05;;;4.50;;
74344;SDS011;62776;50.518;6.732;2023-02-20T19:04:04;6.13;;;4.83;;
74344;SDS011;62776;50.518;6.732;2023-02-20T19:06:51;6.28;;;5.20;;
74344;SDS011;62776;50.518;6.732;2023-02-20T19:09:46;5.28;;;4.78;;